createdAt,value
2023-02-11T00:00:05.445Z,17.25
2023-02-11T00:03:08.976Z,16.95
2023-02-11T00:06:14.945Z,16.16
2023-02-11T00:09:18.190Z,15.30
2023-02-11T00:12:22.211Z,15.45
2023-02-11T00:15:25.454Z,15.43
2023-02-11T00:18:29.757Z,15.21
2023-02-11T00:21:34.832Z,15.07
2023-02-11T00:24:38.567Z,15.15
2023-02-11T00:27:44.762Z,14.98
2023-02-11T00:31:18.514Z,14.71
2023-02-11T00:34:24.013Z,14.45
2023-02-11T00:37:32.144Z,14.23
2023-02-11T00:40:35.439Z,14.24
2023-02-11T00:43:39.487Z,13.80
2023-02-11T00:46:43.606Z,13.97
2023-02-11T00:49:47.085Z,13.55
2023-02-11T00:52:53.121Z,13.51
2023-02-11T00:55:56.476Z,13.23
2023-02-11T00:59:01.283Z,13.01
2023-02-11T01:02:05.979Z,12.85
2023-02-11T01:05:09.881Z,12.92
2023-02-11T01:08:14.860Z,13.11
2023-02-11T01:11:20.809Z,13.08
2023-02-11T01:14:25.284Z,12.84
2023-02-11T01:17:28.742Z,12.41
2023-02-11T01:20:33.114Z,12.29
2023-02-11T01:23:36.493Z,12.38
2023-02-11T01:26:43.512Z,12.15
2023-02-11T01:29:47.461Z,11.83
2023-02-11T01:32:53.107Z,11.85
2023-02-11T01:35:56.508Z,12.09
2023-02-11T01:38:59.799Z,12.04
2023-02-11T01:42:04.821Z,11.92
2023-02-11T01:45:58.977Z,12.09
2023-02-11T01:49:15.644Z,12.02
2023-02-11T01:52:46.298Z,12.00
2023-02-11T01:55:52.549Z,12.22
2023-02-11T01:59:00.235Z,11.79
2023-02-11T02:02:07.880Z,11.75
2023-02-11T02:05:44.920Z,11.69
2023-02-11T02:09:27.429Z,11.64
2023-02-11T02:12:31.584Z,11.70
2023-02-11T02:15:39.905Z,11.61
2023-02-11T02:19:24.954Z,11.70
2023-02-11T02:23:01.203Z,11.24
2023-02-11T02:26:39.298Z,11.33
2023-02-11T02:30:04.411Z,11.33
2023-02-11T02:33:22.399Z,11.86
2023-02-11T02:36:29.065Z,11.68
2023-02-11T02:39:36.384Z,11.68
2023-02-11T02:42:41.095Z,11.71
2023-02-11T02:45:44.690Z,11.90
2023-02-11T02:48:48.905Z,11.60
2023-02-11T02:51:56.592Z,11.37
2023-02-11T02:55:21.171Z,11.44
2023-02-11T02:58:27.099Z,11.19
2023-02-11T03:01:40.827Z,11.24
2023-02-11T03:04:46.961Z,11.23
2023-02-11T03:08:00.201Z,11.20
2023-02-11T03:11:04.731Z,11.29
2023-02-11T03:14:13.398Z,11.03
2023-02-11T03:17:19.990Z,11.15
2023-02-11T03:20:24.526Z,11.35
2023-02-11T03:23:34.222Z,11.53
2023-02-11T03:27:02.063Z,11.16
2023-02-11T03:30:29.001Z,11.36
2023-02-11T03:33:48.478Z,11.41
2023-02-11T03:37:00.848Z,11.23
2023-02-11T03:40:12.168Z,11.67
2023-02-11T03:43:44.559Z,11.44
2023-02-11T03:46:51.336Z,11.16
2023-02-11T03:49:56.210Z,10.82
2023-02-11T03:53:02.715Z,10.64
2023-02-11T03:56:10.194Z,10.76
2023-02-11T03:59:13.536Z,10.56
2023-02-11T04:02:19.410Z,10.46
2023-02-11T04:05:23.475Z,10.49
2023-02-11T04:08:27.137Z,10.44
2023-02-11T04:11:31.100Z,10.37
2023-02-11T04:14:35.957Z,10.32
2023-02-11T04:17:39.386Z,10.45
2023-02-11T04:20:43.989Z,10.34
2023-02-11T04:23:48.423Z,10.60
2023-02-11T04:26:51.729Z,10.55
2023-02-11T04:29:57.502Z,10.62
2023-02-11T04:33:03.237Z,10.61
2023-02-11T04:36:06.780Z,10.15
2023-02-11T04:39:10.062Z,10.33
2023-02-11T04:42:13.553Z,10.12
2023-02-11T04:45:16.971Z,9.81
2023-02-11T04:48:20.959Z,9.70
2023-02-11T04:51:24.674Z,9.62
2023-02-11T04:54:27.888Z,9.98
2023-02-11T04:57:31.276Z,9.98
2023-02-11T05:00:34.586Z,9.90
2023-02-11T05:03:38.468Z,9.38
2023-02-11T05:06:41.967Z,9.40
2023-02-11T05:09:46.898Z,9.24
2023-02-11T05:12:50.726Z,9.44
2023-02-11T05:15:54.412Z,9.59
2023-02-11T05:18:57.741Z,9.79
2023-02-11T05:22:03.359Z,9.76
2023-02-11T05:25:08.006Z,9.76
2023-02-11T05:28:12.194Z,9.80
2023-02-11T05:31:15.503Z,9.86
2023-02-11T05:34:19.133Z,9.99
2023-02-11T05:37:22.666Z,9.76
2023-02-11T05:40:28.353Z,9.50
2023-02-11T05:43:31.741Z,9.38
2023-02-11T05:46:36.017Z,9.42
2023-02-11T05:49:39.314Z,9.17
2023-02-11T05:52:43.212Z,9.57
2023-02-11T05:55:47.924Z,9.39
2023-02-11T05:58:52.672Z,9.66
2023-02-11T06:01:57.028Z,9.69
2023-02-11T06:05:00.510Z,9.51
2023-02-11T06:08:04.867Z,9.54
2023-02-11T06:11:08.133Z,9.51
2023-02-11T06:14:11.450Z,9.48
2023-02-11T06:17:15.712Z,9.55
2023-02-11T06:20:19.743Z,9.73
2023-02-11T06:23:23.402Z,9.50
2023-02-11T06:26:26.948Z,9.63
2023-02-11T06:29:30.243Z,9.96
2023-02-11T06:32:49.080Z,9.65
2023-02-11T06:35:52.905Z,9.81
2023-02-11T06:38:56.278Z,9.71
2023-02-11T06:42:00.366Z,9.88
2023-02-11T06:45:04.338Z,9.69
2023-02-11T06:48:07.684Z,9.98
2023-02-11T06:51:12.316Z,9.87
2023-02-11T06:54:19.141Z,10.06
2023-02-11T06:57:23.876Z,9.42
2023-02-11T07:00:27.373Z,9.55
2023-02-11T07:03:31.849Z,9.53
2023-02-11T07:06:35.170Z,9.95
2023-02-11T07:09:39.989Z,9.66
2023-02-11T07:12:44.288Z,9.64
2023-02-11T07:15:47.798Z,9.69
2023-02-11T07:18:51.217Z,9.71
2023-02-11T07:21:54.907Z,9.74
2023-02-11T07:24:59.862Z,9.83
2023-02-11T07:28:04.791Z,9.66
2023-02-11T07:31:18.758Z,9.71
2023-02-11T07:34:24.828Z,9.93
2023-02-11T07:37:31.491Z,9.62
2023-02-11T07:40:34.828Z,9.46
2023-02-11T07:43:39.511Z,9.67
2023-02-11T07:46:45.817Z,9.58
2023-02-11T07:49:49.186Z,9.24
2023-02-11T07:52:52.456Z,9.16
2023-02-11T07:55:56.943Z,8.86
2023-02-11T07:59:04.374Z,8.96
2023-02-11T08:02:09.086Z,8.93
2023-02-11T08:05:12.521Z,8.72
2023-02-11T08:08:19.742Z,8.86
2023-02-11T08:11:28.189Z,9.22
2023-02-11T08:14:31.521Z,8.83
2023-02-11T08:17:37.440Z,8.69
2023-02-11T08:20:43.042Z,8.88
2023-02-11T08:23:49.182Z,9.09
2023-02-11T08:26:52.401Z,9.06
2023-02-11T08:29:58.742Z,9.19
2023-02-11T08:33:02.040Z,9.33
2023-02-11T08:36:14.732Z,9.21
2023-02-11T08:39:23.939Z,9.05
2023-02-11T08:42:27.732Z,8.98
2023-02-11T08:45:33.278Z,9.11
2023-02-11T08:48:37.118Z,9.58
2023-02-11T08:51:40.721Z,9.49
2023-02-11T08:54:43.904Z,9.31
2023-02-11T08:57:47.172Z,8.64
2023-02-11T09:00:52.298Z,8.72
2023-02-11T09:03:57.037Z,8.85
2023-02-11T09:07:00.207Z,9.07
2023-02-11T09:10:10.981Z,9.25
2023-02-11T09:13:15.157Z,9.15
2023-02-11T09:16:27.496Z,9.25
2023-02-11T09:19:31.596Z,9.82
2023-02-11T09:22:35.081Z,9.74
2023-02-11T09:25:43.311Z,9.55
2023-02-11T09:28:47.486Z,9.07
2023-02-11T09:31:51.010Z,9.20
2023-02-11T09:34:55.726Z,9.08
2023-02-11T09:37:59.201Z,8.88
2023-02-11T09:41:03.844Z,8.78
2023-02-11T09:44:12.487Z,8.78
2023-02-11T09:47:27.281Z,9.11
2023-02-11T09:50:40.591Z,9.10
2023-02-11T09:53:45.494Z,8.69
2023-02-11T09:56:48.762Z,8.74
2023-02-11T09:59:52.085Z,8.88
2023-02-11T10:03:10.156Z,8.77
2023-02-11T10:06:32.838Z,8.83
2023-02-11T10:09:45.381Z,8.59
2023-02-11T10:12:49.048Z,8.71
2023-02-11T10:16:06.134Z,8.72
2023-02-11T10:19:37.467Z,9.05
2023-02-11T10:22:48.655Z,8.84
2023-02-11T10:25:53.857Z,9.02
2023-02-11T10:29:00.930Z,9.29
2023-02-11T10:32:15.664Z,8.77
2023-02-11T10:35:21.984Z,8.95
2023-02-11T10:38:26.060Z,9.03
2023-02-11T10:41:36.038Z,9.40
2023-02-11T10:44:59.296Z,9.58
2023-02-11T10:48:05.802Z,9.51
2023-02-11T10:51:14.466Z,9.61
2023-02-11T10:54:20.060Z,9.32
2023-02-11T10:57:24.093Z,9.29
2023-02-11T11:00:39.161Z,9.25
2023-02-11T11:03:56.442Z,9.47
2023-02-11T11:07:24.328Z,9.41
2023-02-11T11:10:41.149Z,9.26
2023-02-11T11:13:55.066Z,9.10
2023-02-11T11:16:59.284Z,9.34
2023-02-11T11:20:26.632Z,9.37
2023-02-11T11:23:33.398Z,9.20
2023-02-11T11:26:47.677Z,9.28
2023-02-11T11:29:57.359Z,9.29
2023-02-11T11:33:09.666Z,9.29
2023-02-11T11:36:36.201Z,9.06
2023-02-11T11:39:41.387Z,9.07
2023-02-11T11:42:44.966Z,9.19
2023-02-11T11:46:02.349Z,9.32
2023-02-11T11:49:32.511Z,9.18
2023-02-11T11:52:41.631Z,9.14
2023-02-11T11:56:04.884Z,9.20
2023-02-11T11:59:13.928Z,8.84
2023-02-11T12:02:54.331Z,8.83
2023-02-11T12:06:16.034Z,8.61
2023-02-11T12:09:19.245Z,8.70
2023-02-11T12:13:01.646Z,8.78
2023-02-11T12:16:27.169Z,8.50
2023-02-11T12:19:48.109Z,8.72
2023-02-11T12:23:20.059Z,8.78
2023-02-11T12:26:32.388Z,8.79
2023-02-11T12:30:06.446Z,8.94
2023-02-11T12:33:45.227Z,8.74
2023-02-11T12:36:57.347Z,8.54
2023-02-11T12:40:20.793Z,8.46
2023-02-11T12:43:24.200Z,8.29
2023-02-11T12:46:35.344Z,8.43
2023-02-11T12:50:05.820Z,8.58
2023-02-11T12:53:20.924Z,8.47
2023-02-11T12:56:29.098Z,8.41
2023-02-11T12:59:54.529Z,8.52
2023-02-11T13:03:08.253Z,8.09
2023-02-11T13:06:18.856Z,8.24
2023-02-11T13:09:28.917Z,8.18
2023-02-11T13:12:33.932Z,8.16
2023-02-11T13:15:37.633Z,8.04
2023-02-11T13:18:41.531Z,8.06
2023-02-11T13:22:14.233Z,8.16
2023-02-11T13:25:26.539Z,7.89
2023-02-11T13:28:52.381Z,7.97
2023-02-11T13:32:15.723Z,8.12
2023-02-11T13:35:33.160Z,7.82
2023-02-11T13:38:37.170Z,7.93
2023-02-11T13:41:43.506Z,7.68
2023-02-11T13:44:47.380Z,7.65
2023-02-11T13:48:00.773Z,7.49
2023-02-11T13:51:07.798Z,7.28
2023-02-11T13:54:23.934Z,7.01
2023-02-11T13:57:34.281Z,7.20
2023-02-11T14:00:37.559Z,7.25
2023-02-11T14:03:41.850Z,7.14
2023-02-11T14:07:23.978Z,7.21
2023-02-11T14:10:42.359Z,7.35
2023-02-11T14:13:48.856Z,7.15
2023-02-11T14:17:01.072Z,6.77
2023-02-11T14:20:34.568Z,6.65
2023-02-11T14:23:37.909Z,6.42
2023-02-11T14:26:58.219Z,6.87
2023-02-11T14:30:13.395Z,6.63
2023-02-11T14:33:35.949Z,6.71
2023-02-11T14:37:09.894Z,6.34
2023-02-11T14:40:36.698Z,6.57
2023-02-11T14:43:45.398Z,6.68
2023-02-11T14:46:50.868Z,6.60
2023-02-11T14:49:56.577Z,6.76
2023-02-11T14:53:03.331Z,6.69
2023-02-11T14:56:22.498Z,6.99
2023-02-11T14:59:26.434Z,6.67
2023-02-11T15:02:34.049Z,6.84
2023-02-11T15:05:37.093Z,6.91
2023-02-11T15:08:45.572Z,6.44
2023-02-11T15:11:49.703Z,6.51
2023-02-11T15:14:58.763Z,6.42
2023-02-11T15:18:04.365Z,6.54
2023-02-11T15:21:09.521Z,6.43
2023-02-11T15:24:24.058Z,6.69
2023-02-11T15:27:28.250Z,6.68
2023-02-11T15:30:34.282Z,6.46
2023-02-11T15:33:38.715Z,6.75
2023-02-11T15:36:44.020Z,6.49
2023-02-11T15:39:47.352Z,6.52
2023-02-11T15:43:10.949Z,6.54
2023-02-11T15:46:21.577Z,6.29
2023-02-11T15:49:26.070Z,6.65
2023-02-11T15:52:29.717Z,6.57
2023-02-11T15:55:34.640Z,6.47
2023-02-11T15:58:40.154Z,6.68
2023-02-11T16:01:44.314Z,6.76
2023-02-11T16:04:53.392Z,7.03
2023-02-11T16:07:59.073Z,7.08
2023-02-11T16:11:10.966Z,6.87
2023-02-11T16:14:34.836Z,7.27
2023-02-11T16:17:38.461Z,6.97
2023-02-11T16:20:42.656Z,6.93
2023-02-11T16:23:55.173Z,6.68
2023-02-11T16:27:06.201Z,6.84
2023-02-11T16:30:28.815Z,6.97
2023-02-11T16:33:32.687Z,7.18
2023-02-11T16:36:39.479Z,6.98
2023-02-11T16:39:43.553Z,7.15
2023-02-11T16:42:46.760Z,7.16
2023-02-11T16:45:50.389Z,7.09
2023-02-11T16:48:55.745Z,7.17
2023-02-11T16:52:02.902Z,6.94
2023-02-11T16:55:07.548Z,7.18
2023-02-11T16:58:11.931Z,7.19
2023-02-11T17:01:15.331Z,7.22
2023-02-11T17:04:28.214Z,7.34
2023-02-11T17:07:32.142Z,6.98
2023-02-11T17:10:40.878Z,6.93
2023-02-11T17:13:44.987Z,7.04
2023-02-11T17:16:50.086Z,7.13
2023-02-11T17:19:53.402Z,7.10
2023-02-11T17:22:56.640Z,6.99
2023-02-11T17:26:02.067Z,7.07
2023-02-11T17:29:12.101Z,7.38
2023-02-11T17:32:16.044Z,7.06
2023-02-11T17:35:20.782Z,7.15
2023-02-11T17:38:26.891Z,7.15
2023-02-11T17:41:32.241Z,6.98
2023-02-11T17:44:38.957Z,7.16
2023-02-11T17:47:45.130Z,7.22
2023-02-11T17:50:48.462Z,7.33
2023-02-11T17:53:52.751Z,7.36
2023-02-11T17:56:58.454Z,7.49
2023-02-11T18:00:02.042Z,7.26
2023-02-11T18:03:06.100Z,7.74
2023-02-11T18:06:09.961Z,7.68
2023-02-11T18:09:14.233Z,7.78
2023-02-11T18:12:17.811Z,7.69
2023-02-11T18:15:21.010Z,7.33
2023-02-11T18:18:25.489Z,7.38
2023-02-11T18:21:28.702Z,7.01
2023-02-11T18:24:32.158Z,7.12
2023-02-11T18:27:35.787Z,7.42
2023-02-11T18:30:39.556Z,7.49
2023-02-11T18:33:47.199Z,7.43
2023-02-11T18:36:50.753Z,7.23
2023-02-11T18:39:54.058Z,7.41
2023-02-11T18:42:57.396Z,7.51
2023-02-11T18:46:01.665Z,7.24
2023-02-11T18:49:04.942Z,7.52
2023-02-11T18:52:11.761Z,7.68
2023-02-11T18:55:21.924Z,7.87
2023-02-11T18:58:32.757Z,7.13
2023-02-11T19:01:36.853Z,6.76
2023-02-11T19:04:40.519Z,6.91
2023-02-11T19:07:44.073Z,7.51
2023-02-11T19:10:48.792Z,7.97
2023-02-11T19:13:52.595Z,8.12
2023-02-11T19:16:58.590Z,8.12
2023-02-11T19:20:01.975Z,8.41
2023-02-11T19:23:05.328Z,8.50
2023-02-11T19:26:09.258Z,8.83
2023-02-11T19:29:12.523Z,8.66
2023-02-11T19:32:16.026Z,8.52
2023-02-11T19:35:23.217Z,8.19
2023-02-11T19:38:28.225Z,8.29
2023-02-11T19:41:33.035Z,8.22
2023-02-11T19:44:37.184Z,8.54
2023-02-11T19:47:40.990Z,8.59
2023-02-11T19:50:46.052Z,8.60
2023-02-11T19:53:49.914Z,8.04
2023-02-11T19:56:57.764Z,8.26
2023-02-11T20:00:00.959Z,8.36
2023-02-11T20:03:04.260Z,8.17
2023-02-11T20:06:09.452Z,8.19
2023-02-11T20:09:14.845Z,8.38
2023-02-11T20:12:18.696Z,8.03
2023-02-11T20:15:22.160Z,7.93
2023-02-11T20:18:25.645Z,7.80
2023-02-11T20:21:32.175Z,7.76
2023-02-11T20:24:35.454Z,7.87
2023-02-11T20:27:40.012Z,8.23
2023-02-11T20:30:44.037Z,8.08
2023-02-11T20:33:47.713Z,7.80
2023-02-11T20:36:50.978Z,7.88
2023-02-11T20:39:55.772Z,7.86
2023-02-11T20:42:59.566Z,8.18
2023-02-11T20:46:04.409Z,7.55
2023-02-11T20:49:10.976Z,7.85
2023-02-11T20:52:14.846Z,7.92
2023-02-11T20:55:19.146Z,7.81
2023-02-11T20:58:23.331Z,8.15
2023-02-11T21:01:32.100Z,8.22
2023-02-11T21:04:36.082Z,8.01
2023-02-11T21:07:39.429Z,8.14
2023-02-11T21:10:44.386Z,8.25
2023-02-11T21:13:49.334Z,7.84
2023-02-11T21:16:53.661Z,7.73
2023-02-11T21:20:00.608Z,7.65
2023-02-11T21:23:04.397Z,7.64
2023-02-11T21:26:08.492Z,7.82
2023-02-11T21:29:12.338Z,7.78
2023-02-11T21:32:17.368Z,7.66
2023-02-11T21:35:20.686Z,7.23
2023-02-11T21:38:24.652Z,7.23
2023-02-11T21:41:29.461Z,7.43
2023-02-11T21:44:33.397Z,7.52
2023-02-11T21:47:37.654Z,7.15
2023-02-11T21:50:45.328Z,7.44
2023-02-11T21:53:48.220Z,7.40
2023-02-11T21:56:52.818Z,7.43
2023-02-11T21:59:58.483Z,7.39
2023-02-11T22:03:02.019Z,7.67
2023-02-11T22:06:13.244Z,7.65
2023-02-11T22:09:16.448Z,7.76
2023-02-11T22:12:19.719Z,7.94
2023-02-11T22:15:23.212Z,7.53
2023-02-11T22:18:27.474Z,7.49
2023-02-11T22:21:31.030Z,7.60
2023-02-11T22:24:34.274Z,7.79
2023-02-11T22:27:38.226Z,7.56
2023-02-11T22:30:41.850Z,7.39
2023-02-11T22:33:45.358Z,6.96
2023-02-11T22:36:50.374Z,6.95
2023-02-11T22:39:53.513Z,7.24
2023-02-11T22:42:56.878Z,7.41
2023-02-11T22:46:06.637Z,7.39
2023-02-11T22:49:11.433Z,7.23
2023-02-11T22:52:15.359Z,7.31
2023-02-11T22:55:18.666Z,7.56
2023-02-11T22:58:23.584Z,7.52
2023-02-11T23:01:27.506Z,7.50
2023-02-11T23:04:30.807Z,7.55
2023-02-11T23:07:35.020Z,7.32
2023-02-11T23:10:40.389Z,7.48
2023-02-11T23:13:48.934Z,7.40
2023-02-11T23:16:52.485Z,7.35
2023-02-11T23:19:59.309Z,7.50
2023-02-11T23:23:03.386Z,7.55
2023-02-11T23:26:14.909Z,7.38
2023-02-11T23:29:18.460Z,7.60
2023-02-11T23:32:21.737Z,7.73
2023-02-11T23:35:30.789Z,7.90
2023-02-11T23:38:34.656Z,7.61
2023-02-11T23:41:40.621Z,7.82
2023-02-11T23:44:44.721Z,7.87
2023-02-11T23:47:49.110Z,7.54
2023-02-11T23:50:52.563Z,7.66
2023-02-11T23:53:59.390Z,7.53
2023-02-11T23:57:04.778Z,7.84
